Hauptseite
METAR-TAF:

METAR-TAF

Flughäfen :

Graz, Österreich

Flughafen Graz

Breite: 47-00N, Länge: 015-26E, Höhe: 340 m

Beobachtung

Neuester Wetterbericht von vor 17 Minuten, um 18:50 UTC
Wind 2 kt aus unterschiedlichen Richtungen
Temperatur 5°C
Luftfeuchtigkeit 81%
Luftdruck 1015 hPa
Sichtweite 10 km oder mehr
Durchbrochene Bewölkung in der Höhe von 6000 ft

METAR: LOWG 211850Z AUTO VRB02KT 9999 BKN060 05/02 Q1015 NOSIG

Zeit: 20:07 (19:07 UTC)

Prognose

Neuester Wetterbericht von vor 1 Stunde und 52 Minuten, um 17:15 UTC
Gültige Prognose vom 21 um 18 UTC bis 22 um 18 UTC
Wind 2 kt aus unterschiedlichen Richtungen
Sichtweite 10 km oder mehr
keine Wolken unter 1500 m und keine Kumulonimbus oder Gewitterwolken
Wahrscheinlichkeit 30% :
Zeitweise
vom 22 um 03 UTC bis 22 um 07 UTC
Sichtweite: 0400 m
Nebelschwaden

TAF: LOWG 211715Z 2118/2218 VRB02KT CAVOK TX13/2212Z TN00/2206Z PROB30 TEMPO 2203/2207 0400 BCFG NSC

Wetterbeobachtungen und Prognosen von mehr als 4000 Flughäfen (METAR und TAF Bericht).

Die verfügbaren Stationen werden durch gelbe und rote Markierungen auf der Karte dargestellt.

Führen Sie die Maus auf sie, um den Namen der Station zu sehen.

Darauf klicken, um die Beobachtung von Wetterbeobachtungen und Prognosen zu sehen.

Um die Karte zu ändern : klicken Sie auf den grünen Tasten mit einem schwarzen Kreuz Zum Vergrößern, auf den grünen Button mit einem Gedankenstrich zu verkleinern, oder auf die grünen Pfeile für benachbarte Karten.


METAR-TAF: